Time;durP1;ratioP1;P1;durP2;ratioP2;P2;SDS_P1;SDS_P2;PMS_P1;PMS_P2;Temp;Humidity;BMP_temperature;BMP_pressure;BME280_temperature;BME280_humidity;BME280_pressure;Samples;Min_cycle;Max_cycle;Signal;HPM_P1;HPM_P2
2024/02/20 00:00:19;;;;;;;37.13;12.23;;;9.70;99.90;;;;;;7287343;19;20203;-79
2024/02/20 00:02:46;;;;;;;46.67;14.10;;;9.60;99.90;;;;;;7283687;19;20656;-79
2024/02/20 00:05:12;;;;;;;43.50;13.60;;;9.60;99.90;;;;;;7286054;19;20192;-78
2024/02/20 00:07:39;;;;;;;36.10;13.17;;;9.50;99.90;;;;;;7285038;19;20677;-79
2024/02/20 00:10:07;;;;;;;38.63;13.40;;;9.50;99.90;;;;;;7299324;19;20220;-78
2024/02/20 00:12:33;;;;;;;42.93;12.77;;;9.50;99.90;;;;;;7307207;19;20194;-79
2024/02/20 00:15:01;;;;;;;35.53;13.67;;;9.50;99.90;;;;;;7283018;19;20582;-78
2024/02/20 00:17:28;;;;;;;38.53;13.63;;;9.40;99.90;;;;;;7285252;19;20607;-78
2024/02/20 00:19:53;;;;;;;40.93;13.43;;;9.40;99.90;;;;;;7284351;19;20196;-79
2024/02/20 00:22:19;;;;;;;34.63;12.57;;;9.30;99.90;;;;;;7285348;19;20199;-78
2024/02/20 00:24:45;;;;;;;38.30;13.70;;;9.30;99.90;;;;;;7284149;19;20191;-78
2024/02/20 00:27:10;;;;;;;38.67;13.40;;;9.20;99.90;;;;;;7285540;19;20200;-78
2024/02/20 00:29:36;;;;;;;38.97;14.33;;;9.20;99.90;;;;;;7283671;19;20194;-77
2024/02/20 00:32:04;;;;;;;46.83;15.50;;;9.30;99.90;;;;;;7308513;19;20621;-78
2024/02/20 00:34:30;;;;;;;39.43;13.83;;;9.30;99.90;;;;;;7286838;19;20198;-78
2024/02/20 00:36:55;;;;;;;42.67;14.03;;;9.30;99.90;;;;;;7285181;19;20189;-78
2024/02/20 00:39:21;;;;;;;43.43;14.10;;;9.30;99.90;;;;;;7286851;19;20902;-79
2024/02/20 00:41:47;;;;;;;47.27;15.03;;;9.30;99.90;;;;;;7286183;19;20552;-78
2024/02/20 00:44:13;;;;;;;45.40;14.97;;;9.30;99.90;;;;;;7284539;19;20207;-79
2024/02/20 00:46:39;;;;;;;42.50;15.13;;;9.30;99.90;;;;;;7284874;19;21090;-79
2024/02/20 00:49:05;;;;;;;42.27;16.37;;;9.40;99.90;;;;;;7299712;19;20200;-78
2024/02/20 00:51:30;;;;;;;40.43;15.00;;;9.40;99.90;;;;;;7301131;19;20193;-78
2024/02/20 00:53:56;;;;;;;44.77;14.50;;;9.40;99.90;;;;;;7284667;19;20280;-79
2024/02/20 00:56:23;;;;;;;43.67;15.67;;;9.50;99.90;;;;;;7285060;19;20228;-78
2024/02/20 00:58:50;;;;;;;41.23;15.70;;;9.60;99.90;;;;;;7284820;19;20633;-78
2024/02/20 01:01:17;;;;;;;43.17;16.43;;;9.70;99.90;;;;;;7285939;19;20203;-78
2024/02/20 01:03:43;;;;;;;41.03;14.97;;;9.70;99.90;;;;;;7283889;19;20911;-79
2024/02/20 01:06:10;;;;;;;42.40;14.70;;;9.70;99.90;;;;;;7283705;19;20216;-78
2024/02/20 01:08:37;;;;;;;42.63;15.00;;;9.60;99.90;;;;;;7291090;19;20576;-77
2024/02/20 01:11:03;;;;;;;43.43;15.40;;;9.50;99.90;;;;;;7305845;19;20198;-78
2024/02/20 01:13:29;;;;;;;38.17;14.83;;;9.40;99.90;;;;;;7285588;19;20198;-78
2024/02/20 01:15:55;;;;;;;38.27;15.17;;;9.40;99.90;;;;;;7282799;19;20246;-78
2024/02/20 01:18:21;;;;;;;41.73;15.90;;;9.30;99.90;;;;;;7285637;19;20263;-78
2024/02/20 01:20:47;;;;;;;45.47;15.80;;;9.30;99.90;;;;;;7282874;19;20567;-78
2024/02/20 01:23:13;;;;;;;39.53;15.80;;;9.30;99.90;;;;;;7283566;19;20220;-78
2024/02/20 01:25:39;;;;;;;40.83;16.50;;;9.30;99.90;;;;;;7284362;19;20196;-78
2024/02/20 01:28:05;;;;;;;44.43;16.30;;;9.30;99.90;;;;;;7303337;19;20200;-75
2024/02/20 01:30:31;;;;;;;44.53;16.80;;;9.30;99.90;;;;;;7290993;19;20197;-78
2024/02/20 01:33:00;;;;;;;45.00;17.40;;;9.30;99.90;;;;;;7285316;19;20216;-78
2024/02/20 01:35:26;;;;;;;49.13;18.10;;;9.30;99.90;;;;;;7284652;19;20571;-78
2024/02/20 01:37:58;;;;;;;51.87;18.23;;;9.10;99.90;;;;;;7281329;19;20294;-79
2024/02/20 01:40:24;;;;;;;49.33;17.57;;;9.00;99.90;;;;;;7283960;19;20293;-78
2024/02/20 01:42:59;;;;;;;57.53;18.70;;;9.00;99.90;;;;;;7282833;19;20595;-78
2024/02/20 01:45:26;;;;;;;42.17;16.77;;;9.00;99.90;;;;;;7283613;19;20709;-78
2024/02/20 01:47:52;;;;;;;41.07;17.27;;;9.00;99.90;;;;;;7283369;19;20202;-78
2024/02/20 01:50:19;;;;;;;53.17;17.37;;;9.10;99.90;;;;;;7283317;19;20223;-78
2024/02/20 01:52:46;;;;;;;49.87;17.40;;;9.10;99.90;;;;;;7283319;19;20261;-78
2024/02/20 01:55:12;;;;;;;53.97;17.40;;;9.10;99.90;;;;;;7283196;19;20740;-78
2024/02/20 01:57:39;;;;;;;47.50;17.53;;;9.10;99.90;;;;;;7282729;19;20191;-78
2024/02/20 02:00:06;;;;;;;43.23;17.60;;;9.00;99.90;;;;;;7301125;19;20307;-76
2024/02/20 02:02:38;;;;;;;46.57;18.77;;;9.00;99.90;;;;;;7281855;19;20902;-78
2024/02/20 02:05:04;;;;;;;45.40;18.07;;;9.10;99.90;;;;;;7304261;19;20819;-78
2024/02/20 02:07:30;;;;;;;47.27;18.57;;;9.10;99.90;;;;;;7283081;19;20682;-78
2024/02/20 02:09:56;;;;;;;51.83;18.73;;;9.10;99.90;;;;;;7282328;19;20181;-78
2024/02/20 02:12:22;;;;;;;46.33;18.97;;;9.20;99.90;;;;;;7282068;19;20197;-78
2024/02/20 02:14:47;;;;;;;53.03;17.77;;;9.10;99.90;;;;;;7281912;19;20194;-78
2024/02/20 02:17:14;;;;;;;45.90;17.70;;;9.10;99.90;;;;;;7280403;19;20188;-78
2024/02/20 02:19:40;;;;;;;44.27;17.73;;;9.00;99.90;;;;;;7281151;19;20694;-78
2024/02/20 02:22:06;;;;;;;52.47;18.80;;;9.00;99.90;;;;;;7291062;19;20205;-78
2024/02/20 02:24:34;;;;;;;46.27;17.23;;;9.10;99.90;;;;;;7304372;19;20190;-79
2024/02/20 02:27:04;;;;;;;39.40;16.80;;;9.10;99.90;;;;;;7283573;19;20298;-78
2024/02/20 02:29:31;;;;;;;43.03;17.80;;;9.10;99.90;;;;;;7282794;19;20191;-78
2024/02/20 02:31:57;;;;;;;47.07;17.53;;;9.10;99.90;;;;;;7282532;19;20225;-78
2024/02/20 02:34:24;;;;;;;44.07;18.50;;;9.10;99.90;;;;;;7283104;19;20191;-78
2024/02/20 02:36:50;;;;;;;45.63;18.27;;;9.10;99.90;;;;;;7280533;19;20217;-78
2024/02/20 02:39:17;;;;;;;46.13;18.13;;;9.10;99.90;;;;;;7282436;19;20186;-79
2024/02/20 02:41:43;;;;;;;39.53;18.17;;;9.10;99.90;;;;;;7281593;19;20562;-78
2024/02/20 02:44:09;;;;;;;49.93;19.70;;;9.00;99.90;;;;;;7292196;19;20561;-78
2024/02/20 02:46:35;;;;;;;47.27;18.90;;;9.00;99.90;;;;;;7313185;19;20192;-77
2024/02/20 02:49:01;;;;;;;49.47;19.90;;;9.00;99.90;;;;;;7308211;19;20197;-78
2024/02/20 02:51:26;;;;;;;46.03;19.67;;;8.80;99.90;;;;;;7293881;19;20191;-78
2024/02/20 02:53:52;;;;;;;49.67;19.67;;;8.70;99.90;;;;;;7295180;19;20977;-78
2024/02/20 02:56:18;;;;;;;46.70;19.37;;;8.70;99.90;;;;;;7293256;19;20686;-78
2024/02/20 02:58:43;;;;;;;40.73;19.47;;;8.80;99.90;;;;;;7295077;19;20233;-79
2024/02/20 03:01:10;;;;;;;47.87;19.97;;;8.90;99.90;;;;;;7295978;19;20191;-78
2024/02/20 03:03:36;;;;;;;47.53;19.43;;;8.90;99.90;;;;;;7310857;19;20242;-77
2024/02/20 03:06:06;;;;;;;41.67;19.43;;;8.90;99.90;;;;;;7316314;19;20190;-78
2024/02/20 03:08:33;;;;;;;51.77;19.47;;;8.90;99.90;;;;;;7295536;19;20194;-79
2024/02/20 03:10:59;;;;;;;40.03;17.67;;;8.90;99.90;;;;;;7296067;19;20189;-78
2024/02/20 03:13:25;;;;;;;43.80;18.83;;;9.00;99.90;;;;;;7296462;19;20202;-79
2024/02/20 03:15:51;;;;;;;38.87;16.97;;;9.00;99.90;;;;;;7294762;19;20286;-78
2024/02/20 03:18:17;;;;;;;45.30;17.93;;;9.00;99.90;;;;;;7292054;19;20253;-79
2024/02/20 03:20:43;;;;;;;44.23;17.80;;;8.90;99.90;;;;;;7293182;19;20198;-78
2024/02/20 03:23:09;;;;;;;46.90;18.93;;;8.90;99.90;;;;;;7293502;19;20192;-78
2024/02/20 03:25:34;;;;;;;39.10;17.47;;;9.00;99.90;;;;;;7317128;19;20676;-78
2024/02/20 03:28:03;;;;;;;38.33;17.83;;;9.10;99.90;;;;;;7293805;19;20262;-78
2024/02/20 03:30:28;;;;;;;46.23;17.47;;;9.10;99.90;;;;;;7293602;19;20186;-78
2024/02/20 03:32:55;;;;;;;44.43;17.13;;;9.10;99.90;;;;;;7296785;19;21279;-78
2024/02/20 03:35:21;;;;;;;49.00;18.50;;;9.00;99.90;;;;;;7293810;19;20188;-78
2024/02/20 03:37:49;;;;;;;46.93;17.50;;;9.10;99.90;;;;;;7294377;19;20202;-78
2024/02/20 03:40:17;;;;;;;41.53;17.23;;;9.20;99.90;;;;;;7294874;19;20197;-78
2024/02/20 03:42:42;;;;;;;44.87;17.47;;;9.20;99.90;;;;;;7293521;19;20193;-78
2024/02/20 03:45:09;;;;;;;46.17;17.80;;;9.10;99.90;;;;;;7294600;19;20190;-78
2024/02/20 03:47:34;;;;;;;48.27;17.40;;;9.00;99.90;;;;;;7317337;19;20196;-78
2024/02/20 03:50:00;;;;;;;42.83;17.90;;;8.90;99.90;;;;;;7294405;19;20196;-78
2024/02/20 03:52:26;;;;;;;45.80;17.97;;;8.80;99.90;;;;;;7295057;19;20190;-79
2024/02/20 03:54:51;;;;;;;46.57;17.93;;;8.90;99.90;;;;;;7283832;19;20679;-78
2024/02/20 03:57:18;;;;;;;37.97;17.43;;;8.80;99.90;;;;;;7287227;19;20688;-78
2024/02/20 03:59:43;;;;;;;48.27;18.40;;;8.80;99.90;;;;;;7286734;19;20189;-78
2024/02/20 04:02:10;;;;;;;44.17;17.87;;;8.80;99.90;;;;;;7287012;19;22486;-78
2024/02/20 04:04:35;;;;;;;48.80;18.80;;;8.80;99.90;;;;;;7302108;19;20201;-77
2024/02/20 04:07:04;;;;;;;45.73;18.13;;;8.80;99.90;;;;;;7304176;19;20644;-78
2024/02/20 04:09:33;;;;;;;48.33;18.43;;;8.70;99.90;;;;;;7286738;19;20186;-78
2024/02/20 04:11:58;;;;;;;48.63;17.90;;;8.70;99.90;;;;;;7287239;19;20610;-78
2024/02/20 04:14:24;;;;;;;52.70;18.63;;;8.60;99.90;;;;;;7287641;19;20197;-78
2024/02/20 04:16:50;;;;;;;43.10;17.97;;;8.60;99.90;;;;;;7286446;19;20182;-78
2024/02/20 04:19:16;;;;;;;43.63;18.10;;;8.60;99.90;;;;;;7286604;19;20194;-78
2024/02/20 04:21:42;;;;;;;42.03;18.40;;;8.60;99.90;;;;;;7286611;19;20207;-78
2024/02/20 04:24:07;;;;;;;46.53;17.70;;;8.60;99.90;;;;;;7284829;19;20185;-78
2024/02/20 04:26:33;;;;;;;37.97;16.97;;;8.60;99.90;;;;;;7309238;19;20893;-78
2024/02/20 04:28:59;;;;;;;43.00;17.27;;;8.60;99.90;;;;;;7285557;19;20185;-78
2024/02/20 04:31:24;;;;;;;49.03;17.47;;;8.60;99.90;;;;;;7284870;19;20285;-79
2024/02/20 04:33:50;;;;;;;42.17;18.17;;;8.60;99.90;;;;;;7284785;19;20193;-78
2024/02/20 04:36:16;;;;;;;53.00;17.23;;;8.60;99.90;;;;;;7286721;19;20182;-79
2024/02/20 04:38:42;;;;;;;45.73;17.27;;;8.50;99.90;;;;;;7283509;19;20217;-78
2024/02/20 04:41:07;;;;;;;41.23;16.63;;;8.40;99.90;;;;;;7284279;19;20199;-78
2024/02/20 04:43:34;;;;;;;50.50;16.27;;;8.40;99.90;;;;;;7306295;19;20530;-78
2024/02/20 04:46:00;;;;;;;39.73;15.50;;;8.40;99.90;;;;;;7286517;19;20196;-78
2024/02/20 04:48:25;;;;;;;56.97;18.33;;;8.40;99.90;;;;;;7284817;19;20258;-78
2024/02/20 04:50:53;;;;;;;47.97;17.27;;;8.50;99.90;;;;;;7285112;19;20193;-78
2024/02/20 04:53:19;;;;;;;51.33;18.23;;;8.60;99.90;;;;;;7285435;19;20507;-78
2024/02/20 04:55:44;;;;;;;45.73;16.73;;;8.70;99.90;;;;;;7284444;19;20204;-78
2024/02/20 04:58:10;;;;;;;48.83;17.00;;;8.70;99.90;;;;;;7284307;19;20219;-78
2024/02/20 05:00:36;;;;;;;48.53;17.33;;;8.70;99.90;;;;;;7292524;19;20686;-78
2024/02/20 05:03:04;;;;;;;44.20;16.33;;;8.70;99.90;;;;;;7304185;19;20194;-79
2024/02/20 05:05:31;;;;;;;47.17;17.00;;;8.60;99.90;;;;;;7285447;19;20191;-78
2024/02/20 05:07:57;;;;;;;51.03;17.20;;;8.60;99.90;;;;;;7282984;19;20183;-78
2024/02/20 05:10:23;;;;;;;48.20;16.97;;;8.60;99.90;;;;;;7285156;19;20211;-78
2024/02/20 05:12:48;;;;;;;44.23;16.73;;;8.60;99.90;;;;;;7284755;19;20190;-77
2024/02/20 05:15:14;;;;;;;45.17;17.20;;;8.60;99.90;;;;;;7283430;19;20553;-78
2024/02/20 05:17:40;;;;;;;42.90;17.63;;;8.70;99.90;;;;;;7283955;19;20193;-78
2024/02/20 05:20:07;;;;;;;54.77;18.03;;;8.60;99.90;;;;;;7297017;19;20198;-78
2024/02/20 05:22:33;;;;;;;46.43;17.60;;;8.60;99.90;;;;;;7304541;19;20209;-78
2024/02/20 05:24:58;;;;;;;44.07;16.77;;;8.60;99.90;;;;;;7285260;19;20185;-78
2024/02/20 05:27:24;;;;;;;43.17;17.30;;;8.60;99.90;;;;;;7284761;19;20197;-78
2024/02/20 05:29:50;;;;;;;60.47;17.37;;;8.50;99.90;;;;;;7284143;19;20209;-78
2024/02/20 05:32:15;;;;;;;51.73;17.03;;;8.50;99.90;;;;;;7283642;19;20189;-78
2024/02/20 05:34:42;;;;;;;48.93;16.80;;;8.50;99.90;;;;;;7285539;19;20677;-77
2024/02/20 05:37:07;;;;;;;48.33;16.67;;;8.40;99.90;;;;;;7283398;19;20665;-78
2024/02/20 05:39:33;;;;;;;49.83;17.20;;;8.30;99.90;;;;;;7305634;19;20199;-79
2024/02/20 05:41:58;;;;;;;57.03;17.87;;;8.30;99.90;;;;;;7284301;19;20210;-80
2024/02/20 05:44:24;;;;;;;48.50;16.97;;;8.30;99.90;;;;;;7283579;19;20665;-77
2024/02/20 05:46:50;;;;;;;49.63;16.87;;;8.30;99.90;;;;;;7283297;19;20563;-78
2024/02/20 05:49:15;;;;;;;47.50;18.17;;;8.40;99.90;;;;;;7281943;19;20198;-78
2024/02/20 05:51:41;;;;;;;48.37;15.70;;;8.60;99.90;;;;;;7284093;19;20186;-78
2024/02/20 05:54:08;;;;;;;42.67;16.27;;;8.60;99.90;;;;;;7286095;19;20261;-77
2024/02/20 05:56:35;;;;;;;45.37;16.77;;;8.60;99.90;;;;;;7304583;19;20193;-77
2024/02/20 05:59:02;;;;;;;41.37;16.53;;;8.60;99.90;;;;;;7283041;19;20209;-77
2024/02/20 06:01:27;;;;;;;44.83;16.17;;;8.70;99.90;;;;;;7282800;19;20190;-78
2024/02/20 06:03:53;;;;;;;56.97;17.87;;;8.70;99.90;;;;;;7283556;19;20711;-77
2024/02/20 06:06:20;;;;;;;50.87;17.23;;;8.80;99.90;;;;;;7282442;19;20191;-77
2024/02/20 06:08:46;;;;;;;59.07;18.07;;;8.90;99.90;;;;;;7282764;19;20529;-77
2024/02/20 06:11:12;;;;;;;51.93;17.87;;;8.90;99.90;;;;;;7282318;19;20190;-77
2024/02/20 06:13:38;;;;;;;50.17;17.83;;;8.80;99.90;;;;;;7283364;19;20187;-77
2024/02/20 06:16:04;;;;;;;43.90;16.20;;;8.80;99.90;;;;;;7303315;19;20645;-78
2024/02/20 06:18:30;;;;;;;44.37;15.97;;;8.80;99.90;;;;;;7282179;19;20206;-78
2024/02/20 06:20:55;;;;;;;44.43;17.20;;;8.80;99.90;;;;;;7282047;19;20554;-77
2024/02/20 06:23:21;;;;;;;51.33;18.67;;;8.80;99.90;;;;;;7281403;19;20224;-78
2024/02/20 06:25:47;;;;;;;54.00;18.30;;;8.80;99.90;;;;;;7283729;19;20221;-78
2024/02/20 06:28:14;;;;;;;47.87;18.23;;;8.80;99.90;;;;;;7283157;19;20190;-78
2024/02/20 06:30:41;;;;;;;47.70;18.27;;;8.80;99.90;;;;;;7279693;19;20214;-78
2024/02/20 06:33:07;;;;;;;51.97;18.67;;;8.80;99.90;;;;;;7284578;19;20554;-77
2024/02/20 06:35:33;;;;;;;56.93;18.83;;;8.70;99.90;;;;;;7304089;19;20256;-78
2024/02/20 06:37:58;;;;;;;53.83;18.37;;;8.70;99.90;;;;;;7280393;19;20186;-78
2024/02/20 06:40:24;;;;;;;47.33;17.13;;;8.70;99.90;;;;;;7282900;19;20991;-77
2024/02/20 06:42:50;;;;;;;47.73;17.93;;;8.70;99.90;;;;;;7280266;19;20253;-78
2024/02/20 06:45:16;;;;;;;45.07;17.67;;;8.60;99.90;;;;;;7281567;19;20671;-77
2024/02/20 06:47:42;;;;;;;56.20;17.40;;;8.60;99.90;;;;;;7277740;19;20198;-78
2024/02/20 06:50:14;;;;;;;50.63;17.40;;;8.70;99.90;;;;;;7279857;19;20192;-78
2024/02/20 06:52:40;;;;;;;54.97;17.70;;;8.70;99.90;;;;;;7281591;19;20195;-78
2024/02/20 06:55:08;;;;;;;45.27;17.67;;;8.60;99.90;;;;;;7295576;19;20182;-77
2024/02/20 06:57:35;;;;;;;49.27;18.10;;;8.60;99.90;;;;;;7302248;19;20265;-79
2024/02/20 07:00:04;;;;;;;50.07;18.00;;;8.50;99.90;;;;;;7282141;19;20182;-80
2024/02/20 07:02:31;;;;;;;45.37;16.77;;;8.60;99.90;;;;;;7281648;19;20201;-80
2024/02/20 07:04:57;;;;;;;46.60;16.90;;;8.50;99.90;;;;;;7281294;19;20178;-79
2024/02/20 07:07:23;;;;;;;45.67;16.17;;;8.50;99.90;;;;;;7282341;19;20195;-80
2024/02/20 07:09:48;;;;;;;49.80;16.47;;;8.60;99.90;;;;;;7280422;19;20192;-79
2024/02/20 07:12:14;;;;;;;51.97;16.40;;;8.60;99.90;;;;;;7282114;19;20193;-80
2024/02/20 07:14:40;;;;;;;51.20;16.63;;;8.70;99.90;;;;;;7279195;19;20683;-80
2024/02/20 07:17:06;;;;;;;46.87;16.10;;;8.70;99.90;;;;;;7293626;19;20950;-79
2024/02/20 07:19:32;;;;;;;44.60;15.10;;;8.70;99.90;;;;;;7297560;19;20219;-80
2024/02/20 07:21:58;;;;;;;42.47;15.17;;;8.70;99.90;;;;;;7280764;19;20772;-80
2024/02/20 07:24:24;;;;;;;47.20;15.67;;;8.70;99.90;;;;;;7279859;19;20250;-79
2024/02/20 07:26:50;;;;;;;39.67;14.33;;;8.80;99.90;;;;;;7278345;19;20196;-80
2024/02/20 07:29:19;;;;;;;43.47;14.33;;;8.80;99.90;;;;;;7284160;19;20549;-80
2024/02/20 07:31:45;;;;;;;45.23;14.73;;;8.80;99.90;;;;;;7286898;19;20249;-79
2024/02/20 07:34:12;;;;;;;42.17;13.53;;;8.90;99.90;;;;;;7286774;19;20727;-79
2024/02/20 07:36:37;;;;;;;45.93;14.77;;;9.00;99.90;;;;;;7287914;19;20291;-78
2024/02/20 07:39:04;;;;;;;44.73;13.97;;;9.10;99.90;;;;;;7309834;19;20187;-79
2024/02/20 07:41:29;;;;;;;42.07;14.07;;;9.20;99.90;;;;;;7287841;19;20195;-80
2024/02/20 07:43:55;;;;;;;37.97;13.00;;;9.40;99.90;;;;;;7288297;19;20195;-79
2024/02/20 07:46:21;;;;;;;43.33;13.23;;;9.50;99.90;;;;;;7289546;19;20681;-80
2024/02/20 07:48:47;;;;;;;36.43;12.47;;;9.40;99.90;;;;;;7285380;19;20557;-80
2024/02/20 07:51:13;;;;;;;41.80;13.53;;;9.50;99.90;;;;;;7287913;19;20198;-79
2024/02/20 07:53:39;;;;;;;36.00;13.00;;;9.50;99.90;;;;;;7287199;19;20225;-80
2024/02/20 07:56:08;;;;;;;37.60;12.00;;;9.60;99.90;;;;;;7308158;19;20211;-79
2024/02/20 07:58:38;;;;;;;32.17;11.63;;;9.70;99.90;;;;;;7287463;19;20194;-80
2024/02/20 08:01:13;;;;;;;33.90;11.97;;;9.70;99.90;;;;;;7287504;19;20226;-79
2024/02/20 08:03:39;;;;;;;31.67;10.33;;;9.80;99.90;;;;;;7263743;19;20205;-79
2024/02/20 08:06:05;;;;;;;32.60;11.37;;;10.00;99.90;;;;;;7308328;19;20216;-80
2024/02/20 08:08:31;;;;;;;39.90;10.83;;;10.10;99.90;;;;;;7287076;19;20190;-80
2024/02/20 08:10:56;;;;;;;37.97;11.23;;;10.10;99.90;;;;;;7286147;19;20631;-80
2024/02/20 08:13:23;;;;;;;32.47;11.10;;;10.10;99.90;;;;;;7285788;19;20189;-79
2024/02/20 08:15:49;;;;;;;31.57;10.70;;;10.10;99.90;;;;;;7284197;19;20200;-79
2024/02/20 08:18:14;;;;;;;31.03;10.30;;;10.20;99.90;;;;;;7285158;19;20690;-80
2024/02/20 08:20:40;;;;;;;35.40;10.70;;;10.20;99.90;;;;;;7286590;19;20189;-80
2024/02/20 08:23:05;;;;;;;35.93;10.13;;;10.20;99.90;;;;;;7303412;19;20206;-76
2024/02/20 08:25:31;;;;;;;31.93;10.70;;;10.30;99.90;;;;;;7293484;19;20205;-80
2024/02/20 08:27:57;;;;;;;32.57;9.03;;;10.30;99.90;;;;;;7283427;19;20196;-79
2024/02/20 08:30:26;;;;;;;33.33;10.17;;;10.30;99.90;;;;;;7284007;19;20243;-80
2024/02/20 08:32:52;;;;;;;28.90;9.90;;;10.20;99.90;;;;;;7285796;19;20193;-79
2024/02/20 08:35:18;;;;;;;31.97;9.90;;;10.30;99.90;;;;;;7284487;19;20185;-80
2024/02/20 08:37:46;;;;;;;30.17;9.60;;;10.30;99.90;;;;;;7283979;19;20220;-80
2024/02/20 08:40:15;;;;;;;34.83;9.87;;;10.40;99.90;;;;;;7282801;19;20248;-80
2024/02/20 08:42:41;;;;;;;28.13;9.43;;;10.40;99.90;;;;;;7283749;19;20193;-79
2024/02/20 08:45:08;;;;;;;31.27;10.07;;;10.50;99.90;;;;;;7294082;19;20185;-79
2024/02/20 08:47:35;;;;;;;34.37;10.13;;;10.60;99.90;;;;;;7308004;19;20317;-80
2024/02/20 08:50:01;;;;;;;30.73;9.10;;;10.70;99.90;;;;;;7286204;19;20189;-80
2024/02/20 08:52:26;;;;;;;34.03;9.27;;;10.80;99.90;;;;;;7285586;19;20213;-80
2024/02/20 08:54:52;;;;;;;31.03;9.03;;;10.80;99.90;;;;;;7286404;19;20207;-79
2024/02/20 08:57:18;;;;;;;30.00;9.13;;;10.90;99.90;;;;;;7286330;19;20196;-79
2024/02/20 08:59:45;;;;;;;27.97;8.83;;;11.00;99.90;;;;;;7285516;19;20193;-80
2024/02/20 09:02:10;;;;;;;29.03;8.63;;;11.10;99.90;;;;;;7285750;19;20293;-80
2024/02/20 09:04:37;;;;;;;30.30;8.07;;;11.20;99.90;;;;;;7298849;19;20231;-78
2024/02/20 09:07:03;;;;;;;29.83;9.07;;;11.10;99.90;;;;;;7308104;19;20185;-80
2024/02/20 09:09:29;;;;;;;35.97;8.60;;;11.20;99.90;;;;;;7284675;19;20191;-80
2024/02/20 09:11:54;;;;;;;30.43;8.37;;;11.20;99.90;;;;;;7286311;19;20256;-80
2024/02/20 09:14:21;;;;;;;28.10;7.93;;;11.40;99.90;;;;;;7285158;19;20197;-80
2024/02/20 09:16:47;;;;;;;29.20;8.30;;;11.50;99.90;;;;;;7285323;19;20188;-80
2024/02/20 09:19:15;;;;;;;26.30;7.97;;;11.40;99.90;;;;;;7285966;19;20245;-80
2024/02/20 09:21:41;;;;;;;26.40;7.87;;;11.50;99.90;;;;;;7284692;19;20213;-81
2024/02/20 09:24:10;;;;;;;27.17;7.47;;;11.50;99.90;;;;;;7293322;19;20197;-80
2024/02/20 09:26:36;;;;;;;28.53;7.60;;;11.70;99.90;;;;;;7307876;19;20216;-81
2024/02/20 09:29:02;;;;;;;31.67;7.37;;;11.70;99.90;;;;;;7284411;19;20252;-80
2024/02/20 09:31:28;;;;;;;26.90;7.57;;;11.70;99.90;;;;;;7283637;19;20670;-80
2024/02/20 09:33:55;;;;;;;27.57;8.03;;;11.70;99.90;;;;;;7284141;19;20252;-80
2024/02/20 09:36:21;;;;;;;26.70;7.07;;;11.80;99.90;;;;;;7285141;19;20252;-80
2024/02/20 09:38:46;;;;;;;25.13;8.07;;;11.70;99.90;;;;;;7284538;19;20211;-80
2024/02/20 09:41:23;;;;;;;33.67;8.37;;;11.90;99.90;;;;;;7284239;19;20217;-80
2024/02/20 09:43:49;;;;;;;27.93;7.63;;;11.90;99.90;;;;;;7284464;19;20200;-80
2024/02/20 09:46:19;;;;;;;25.67;7.33;;;11.90;99.90;;;;;;7284456;19;20193;-79
2024/02/20 09:48:47;;;;;;;29.10;7.83;;;12.10;99.90;;;;;;7283340;19;20210;-80
2024/02/20 09:51:16;;;;;;;26.50;7.50;;;12.10;99.90;;;;;;7283297;19;20264;-79
2024/02/20 09:53:42;;;;;;;26.20;7.13;;;12.20;99.90;;;;;;7283443;19;20199;-80
2024/02/20 09:56:09;;;;;;;22.57;6.73;;;12.20;99.90;;;;;;7283785;19;20193;-79
2024/02/20 09:58:36;;;;;;;26.93;7.50;;;12.10;99.90;;;;;;7303154;19;20612;-77
2024/02/20 10:01:05;;;;;;;30.83;7.20;;;12.20;99.90;;;;;;7292340;19;20232;-79
2024/02/20 10:03:34;;;;;;;29.27;6.70;;;12.10;99.90;;;;;;7278084;19;20557;-78
2024/02/20 10:05:59;;;;;;;27.43;7.33;;;12.30;99.90;;;;;;7281461;19;20212;-78
2024/02/20 10:08:27;;;;;;;32.97;8.00;;;12.50;99.90;;;;;;7283684;19;20195;-80
2024/02/20 10:10:53;;;;;;;33.27;7.40;;;12.60;99.90;;;;;;7281512;19;20194;-79
2024/02/20 10:13:19;;;;;;;31.93;7.60;;;12.60;99.90;;;;;;7280739;19;20249;-78
2024/02/20 10:15:46;;;;;;;22.33;6.20;;;12.90;99.90;;;;;;7282029;19;20190;-78
2024/02/20 10:18:14;;;;;;;27.80;6.80;;;13.40;99.90;;;;;;7281260;19;20251;-78
2024/02/20 10:20:40;;;;;;;28.90;6.40;;;14.30;99.90;;;;;;7283186;19;20196;-78
2024/02/20 10:23:06;;;;;;;24.40;6.23;;;15.50;99.90;;;;;;7302891;19;20654;-78
2024/02/20 10:25:32;;;;;;;21.37;5.37;;;16.80;99.90;;;;;;7298717;19;20195;-78
2024/02/20 10:27:58;;;;;;;24.17;5.80;;;17.40;99.90;;;;;;7282442;19;20206;-79
2024/02/20 10:30:24;;;;;;;21.80;5.53;;;18.10;99.90;;;;;;7280996;19;20256;-78
2024/02/20 10:32:50;;;;;;;22.00;5.87;;;18.30;99.90;;;;;;7282943;19;20186;-79
2024/02/20 10:35:16;;;;;;;21.27;5.53;;;18.40;99.90;;;;;;7281805;19;20203;-78
2024/02/20 10:37:41;;;;;;;22.03;5.60;;;18.30;99.90;;;;;;7282354;19;20192;-78
2024/02/20 10:40:09;;;;;;;21.87;5.47;;;18.70;99.90;;;;;;7289668;19;20222;-78
2024/02/20 10:42:36;;;;;;;21.03;5.30;;;19.30;99.90;;;;;;7302659;19;20180;-78
2024/02/20 10:45:10;;;;;;;18.03;5.43;;;19.90;99.90;;;;;;7282769;19;20189;-78
2024/02/20 10:47:45;;;;;;;25.93;6.00;;;20.50;99.90;;;;;;7282660;19;20189;-78
2024/02/20 10:50:15;;;;;;;20.53;6.03;;;20.30;99.90;;;;;;7179816;19;2004680;-78
2024/02/20 10:52:42;;;;;;;21.70;5.47;;;20.70;99.90;;;;;;7283962;19;20216;-78
2024/02/20 10:55:12;;;;;;;20.00;6.17;;;20.20;99.90;;;;;;7284486;19;20217;-78
2024/02/20 10:57:41;;;;;;;23.13;5.80;;;20.50;99.90;;;;;;7280922;19;20591;-79
2024/02/20 11:00:11;;;;;;;26.13;6.10;;;20.20;99.90;;;;;;7297143;19;20192;-78
2024/02/20 11:02:40;;;;;;;24.17;5.60;;;20.00;99.90;;;;;;7292355;19;20193;-79
2024/02/20 11:05:09;;;;;;;24.33;6.37;;;19.70;99.90;;;;;;7305426;19;20197;-78
2024/02/20 11:07:35;;;;;;;25.70;5.80;;;19.10;99.90;;;;;;7312479;19;20189;-79
2024/02/20 11:10:19;;;;;;;25.57;5.90;;;18.80;99.90;;;;;;7289186;19;20197;-79
2024/02/20 11:12:45;;;;;;;23.63;5.83;;;17.80;99.90;;;;;;7186420;19;2004376;-78
2024/02/20 11:15:21;;;;;;;24.70;6.43;;;17.40;99.90;;;;;;7289718;19;20561;-78
2024/02/20 11:17:50;;;;;;;24.73;6.87;;;17.00;99.90;;;;;;7289139;19;20663;-79
2024/02/20 11:20:21;;;;;;;23.57;5.80;;;16.30;99.90;;;;;;7290665;19;20201;-79
2024/02/20 11:22:50;;;;;;;28.37;6.57;;;15.90;99.90;;;;;;7286791;19;20185;-79
2024/02/20 11:25:27;;;;;;;28.23;6.97;;;15.80;99.90;;;;;;7288076;19;20196;-79
2024/02/20 11:27:53;;;;;;;25.00;6.90;;;15.40;99.90;;;;;;7287777;19;20840;-79
2024/02/20 11:30:24;;;;;;;24.00;7.37;;;15.30;99.90;;;;;;7288241;19;20197;-78
2024/02/20 11:32:56;;;;;;;21.73;7.73;;;15.00;99.90;;;;;;7287797;19;20192;-78
2024/02/20 11:35:27;;;;;;;26.23;8.50;;;14.80;99.90;;;;;;7288619;19;20246;-79
2024/02/20 11:37:54;;;;;;;22.83;8.20;;;14.90;99.90;;;;;;7286474;19;20813;-79
2024/02/20 11:40:33;;;;;;;22.70;8.60;;;14.70;99.90;;;;;;7287672;19;20256;-78
2024/02/20 11:43:03;;;;;;;25.67;9.13;;;14.60;99.90;;;;;;7287002;19;20249;-78
2024/02/20 11:45:29;;;;;;;26.50;10.03;;;14.50;99.90;;;;;;7288266;19;20730;-78
2024/02/20 11:48:05;;;;;;;27.77;9.93;;;14.40;99.90;;;;;;7288529;19;20199;-79
2024/02/20 11:50:32;;;;;;;26.67;9.70;;;14.30;99.90;;;;;;7287291;19;20835;-79
2024/02/20 11:52:59;;;;;;;29.83;11.13;;;14.00;99.90;;;;;;7278440;19;20916;-78
2024/02/20 11:55:25;;;;;;;29.10;11.47;;;13.80;99.90;;;;;;7288126;19;20532;-78
2024/02/20 11:57:51;;;;;;;31.23;11.50;;;13.50;99.90;;;;;;7287353;19;20709;-79
2024/02/20 12:00:17;;;;;;;30.37;13.03;;;13.30;99.90;;;;;;7288893;19;20191;-78
2024/02/20 12:02:43;;;;;;;35.70;14.30;;;13.30;99.90;;;;;;7286147;19;20256;-80
2024/02/20 12:05:09;;;;;;;29.13;14.63;;;13.00;99.90;;;;;;7288198;19;20655;-79
2024/02/20 12:07:35;;;;;;;37.13;16.03;;;12.90;99.90;;;;;;7308664;19;20184;-79
2024/02/20 12:10:01;;;;;;;36.27;16.93;;;12.90;99.90;;;;;;7286037;19;20216;-78
2024/02/20 12:12:27;;;;;;;44.33;17.10;;;12.80;99.90;;;;;;7285395;19;20232;-79
2024/02/20 12:15:11;;;;;;;46.13;16.50;;;12.70;99.90;;;;;;7284649;19;20190;-79
2024/02/20 12:17:45;;;;;;;40.53;15.83;;;12.50;99.90;;;;;;7276362;19;20319;-78
2024/02/20 12:20:13;;;;;;;39.20;15.30;;;12.50;99.90;;;;;;7286115;19;20208;-79
2024/02/20 12:22:42;;;;;;;39.77;15.70;;;12.70;99.90;;;;;;7286929;19;20197;-78
2024/02/20 12:25:10;;;;;;;39.97;15.70;;;12.70;99.90;;;;;;7289738;19;20309;-79
2024/02/20 12:27:37;;;;;;;37.53;15.80;;;12.80;99.90;;;;;;7307987;19;20192;-78
2024/02/20 12:30:04;;;;;;;41.43;16.90;;;12.90;99.90;;;;;;7286104;19;20189;-78
2024/02/20 12:32:30;;;;;;;50.60;17.63;;;13.00;99.90;;;;;;7286788;19;20205;-78